HKMO/MBA METAR and TAF weather

Enter ICAO airport designator
Station Type Date Time Source
HKMO METAR 2019/12/11 14:00 UTC NOAA

HKMO 111400Z 07009KT 9999 FEW026 31/24 Q1008 NOSIG


Station Type Date Time Source
HKMO Decoded METAR 2019/12/11 14:00 UTC NOAA

Mombasa, Kenya (HKMO) 04-02S 039-37E 55M
Dec 11, 2019 - 09:00 AM EST / 2019.12.11 1400 UTC
Wind: from the ENE (070 degrees) at 10 MPH (9 KT):0
Visibility: greater than 7 mile(s):0
Sky conditions: mostly clear
Temperature: 87 F (31 C)
Heat index: 95.7 F (35.4 C):1
Dew Point: 75 F (24 C)
Relative Humidity: 66%
Pressure (altimeter): 29.77 in. Hg (1008 hPa)
ob: HKMO 111400Z 07009KT 9999 FEW026 31/24 Q1008 NOSIG
cycle: 14

Station Type Date Time Source
HKMO TAF 2019/12/11 18:33 UTC NOAA

TAF HKMO 101700Z 1018/1124 05005KT 9999 FEW023 /
TEMPO 1100/1106 34005KT -SHRA SCT020 /
BECMG 1109/1112 05010KT SCT026 /
BECMG 1118/1121 05005KT FEW022

Example: see airport list